createdAt,value
2019-02-20T00:02:11.729Z,99.90
2019-02-20T00:05:16.235Z,99.90
2019-02-20T00:08:20.941Z,99.90
2019-02-20T00:11:25.752Z,99.90
2019-02-20T00:14:30.698Z,99.90
2019-02-20T00:17:35.418Z,99.90
2019-02-20T00:20:39.859Z,99.90
2019-02-20T00:23:44.606Z,99.90
2019-02-20T00:26:49.304Z,99.90
2019-02-20T00:29:53.746Z,99.90
2019-02-20T00:32:58.460Z,99.90
2019-02-20T00:36:02.898Z,99.90
2019-02-20T00:39:09.355Z,99.90
2019-02-20T00:42:14.089Z,99.90
2019-02-20T00:45:23.114Z,99.90
2019-02-20T00:48:29.198Z,99.90
2019-02-20T00:51:35.285Z,99.90
2019-02-20T00:54:39.977Z,99.90
2019-02-20T00:57:44.410Z,99.90
2019-02-20T01:00:48.829Z,99.90
2019-02-20T01:03:53.267Z,99.90
2019-02-20T01:06:57.700Z,99.90
2019-02-20T01:10:02.137Z,99.90
2019-02-20T01:13:06.816Z,99.90
2019-02-20T01:16:11.546Z,99.90
2019-02-20T01:19:15.995Z,99.90
2019-02-20T01:22:20.433Z,99.90
2019-02-20T01:25:24.872Z,99.90
2019-02-20T01:28:29.653Z,99.90
2019-02-20T01:31:34.380Z,99.90
2019-02-20T01:34:39.111Z,99.90
2019-02-20T01:37:43.549Z,99.90
2019-02-20T01:40:47.985Z,99.90
2019-02-20T01:43:52.702Z,99.90
2019-02-20T01:46:57.134Z,99.90
2019-02-20T01:50:01.569Z,99.90
2019-02-20T01:53:10.230Z,99.90
2019-02-20T01:56:12.181Z,99.90
2019-02-20T01:59:16.620Z,99.90
2019-02-20T02:02:21.385Z,99.90
2019-02-20T02:05:25.823Z,99.90
2019-02-20T02:08:30.537Z,99.90
2019-02-20T02:11:34.974Z,99.90
2019-02-20T02:14:39.692Z,99.90
2019-02-20T02:17:44.129Z,99.90
2019-02-20T02:20:48.564Z,99.90
2019-02-20T02:23:53.272Z,99.90
2019-02-20T02:26:57.714Z,99.90
2019-02-20T02:30:02.161Z,99.90
2019-02-20T02:33:06.587Z,99.90
2019-02-20T02:36:11.371Z,99.90
2019-02-20T02:39:15.803Z,99.90
2019-02-20T02:42:20.528Z,99.90
2019-02-20T02:45:25.272Z,99.90
2019-02-20T02:48:29.698Z,99.90
2019-02-20T02:51:34.143Z,99.90
2019-02-20T02:54:38.578Z,99.90
2019-02-20T02:57:43.011Z,99.90
2019-02-20T03:00:47.453Z,99.90
2019-02-20T03:03:52.209Z,99.90
2019-02-20T03:06:56.648Z,99.90
2019-02-20T03:10:01.089Z,99.90
2019-02-20T03:13:05.792Z,99.90
2019-02-20T03:16:10.620Z,99.90
2019-02-20T03:19:15.047Z,99.90
2019-02-20T03:22:19.489Z,99.90
2019-02-20T03:25:24.203Z,99.90
2019-02-20T03:28:28.640Z,99.90
2019-02-20T03:31:33.358Z,99.90
2019-02-20T03:34:38.025Z,99.90
2019-02-20T03:37:42.464Z,99.90
2019-02-20T03:40:46.965Z,99.90
2019-02-20T03:43:51.398Z,99.90
2019-02-20T03:46:55.853Z,99.90
2019-02-20T03:50:00.609Z,99.90
2019-02-20T03:53:05.342Z,99.90
2019-02-20T03:56:09.861Z,99.90
2019-02-20T03:59:14.288Z,99.90
2019-02-20T04:02:19.020Z,99.90
2019-02-20T04:05:23.764Z,99.90
2019-02-20T04:08:28.195Z,99.90
2019-02-20T04:11:32.649Z,99.90
2019-02-20T04:14:38.148Z,99.90
2019-02-20T04:17:42.590Z,99.90
2019-02-20T04:20:47.036Z,99.90
2019-02-20T04:24:01.569Z,99.90
2019-02-20T04:26:57.894Z,99.90
2019-02-20T04:30:02.620Z,99.90
2019-02-20T04:33:07.064Z,99.90
2019-02-20T04:36:11.877Z,99.90
2019-02-20T04:39:16.608Z,99.90
2019-02-20T04:42:21.343Z,99.90
2019-02-20T04:45:26.074Z,99.90
2019-02-20T04:48:30.808Z,99.90
2019-02-20T04:51:35.315Z,99.90
2019-02-20T04:54:39.979Z,99.90
2019-02-20T04:57:44.694Z,99.90
2019-02-20T05:00:49.130Z,99.90
2019-02-20T05:03:53.953Z,99.90
2019-02-20T05:06:58.386Z,99.90
2019-02-20T05:10:02.816Z,99.90
2019-02-20T05:13:08.132Z,99.90
2019-02-20T05:16:12.557Z,99.90
2019-02-20T05:19:17.599Z,99.90
2019-02-20T05:22:22.335Z,99.90
2019-02-20T05:25:27.067Z,99.90
2019-02-20T05:28:31.893Z,99.90
2019-02-20T05:31:36.325Z,99.90
2019-02-20T05:34:40.762Z,99.90
2019-02-20T05:37:45.201Z,99.90
2019-02-20T05:40:49.637Z,99.90
2019-02-20T05:43:54.077Z,99.90
2019-02-20T05:46:59.048Z,99.90
2019-02-20T05:50:03.656Z,99.90
2019-02-20T05:53:08.094Z,99.90
2019-02-20T05:56:12.829Z,99.90
2019-02-20T05:59:17.561Z,99.90
2019-02-20T06:02:22.006Z,99.90
2019-02-20T06:05:26.732Z,99.90
2019-02-20T06:08:31.564Z,99.90
2019-02-20T06:11:36.001Z,99.90
2019-02-20T06:14:40.434Z,99.90
2019-02-20T06:17:45.229Z,99.90
2019-02-20T06:20:49.657Z,99.90
2019-02-20T06:23:54.096Z,99.90
2019-02-20T06:26:58.834Z,99.90
2019-02-20T06:30:04.197Z,99.90
2019-02-20T06:33:08.626Z,99.90
2019-02-20T06:36:13.302Z,99.90
2019-02-20T06:39:17.745Z,99.90
2019-02-20T06:42:22.182Z,99.90
2019-02-20T06:45:26.629Z,99.90
2019-02-20T06:48:31.066Z,99.90
2019-02-20T06:51:35.837Z,99.90
2019-02-20T06:54:40.574Z,99.90
2019-02-20T06:57:45.289Z,99.90
2019-02-20T07:00:49.728Z,99.90
2019-02-20T07:03:54.169Z,99.90
2019-02-20T07:07:15.425Z,99.90
2019-02-20T07:10:51.831Z,99.90
2019-02-20T07:14:25.787Z,99.90
2019-02-20T07:17:47.067Z,99.90
2019-02-20T07:21:08.387Z,99.90
2019-02-20T07:24:26.445Z,99.90
2019-02-20T07:27:49.188Z,99.90
2019-02-20T07:30:53.768Z,99.90
2019-02-20T07:33:58.206Z,99.90
2019-02-20T07:37:02.644Z,99.90
2019-02-20T07:40:09.025Z,99.90
2019-02-20T07:43:13.470Z,99.90
2019-02-20T07:46:17.990Z,99.90
2019-02-20T07:49:22.817Z,99.90
2019-02-20T07:52:27.245Z,99.90
2019-02-20T07:55:31.692Z,99.90
2019-02-20T07:58:36.134Z,99.90
2019-02-20T08:01:40.574Z,99.90
2019-02-20T08:04:45.012Z,99.90
2019-02-20T08:07:49.457Z,99.90
2019-02-20T08:10:53.946Z,99.90
2019-02-20T08:13:58.385Z,99.90
2019-02-20T08:17:03.138Z,99.90
2019-02-20T08:20:10.191Z,99.90
2019-02-20T08:23:14.951Z,99.90
2019-02-20T08:26:19.390Z,99.90
2019-02-20T08:29:23.826Z,99.90
2019-02-20T08:32:28.273Z,99.90
2019-02-20T08:35:32.718Z,99.90
2019-02-20T08:38:37.496Z,99.90
2019-02-20T08:41:42.237Z,99.90
2019-02-20T08:44:46.941Z,99.90
2019-02-20T08:47:51.378Z,99.90
2019-02-20T08:50:56.095Z,99.90
2019-02-20T08:54:00.537Z,99.90
2019-02-20T08:57:05.255Z,99.90
2019-02-20T09:00:14.826Z,99.90
2019-02-20T09:03:19.266Z,99.90
2019-02-20T09:06:24.065Z,99.90
2019-02-20T09:09:28.786Z,99.90
2019-02-20T09:12:33.238Z,99.90
2019-02-20T09:15:37.677Z,99.90
2019-02-20T09:18:42.466Z,99.90
2019-02-20T09:21:46.908Z,99.90
2019-02-20T09:24:51.408Z,99.90
2019-02-20T09:27:55.867Z,99.90
2019-02-20T09:31:00.305Z,99.90
2019-02-20T09:34:04.735Z,99.90
2019-02-20T09:37:09.522Z,99.90
2019-02-20T09:40:18.962Z,99.90
2019-02-20T09:43:23.888Z,99.80
2019-02-20T09:46:28.338Z,99.70
2019-02-20T09:49:32.771Z,99.40
2019-02-20T09:52:37.216Z,98.60
2019-02-20T09:55:50.895Z,97.00
2019-02-20T09:58:47.829Z,95.00
2019-02-20T10:01:52.284Z,92.90
2019-02-20T10:04:56.735Z,91.90
2019-02-20T10:08:01.539Z,91.40
2019-02-20T10:11:05.988Z,89.80
2019-02-20T10:14:10.443Z,88.40
2019-02-20T10:17:14.897Z,87.10
2019-02-20T10:20:19.330Z,87.80
2019-02-20T10:23:23.785Z,86.40
2019-02-20T10:26:28.229Z,83.30
2019-02-20T10:29:32.677Z,83.40
2019-02-20T10:32:37.127Z,83.80
2019-02-20T10:35:41.568Z,84.60
2019-02-20T10:38:46.279Z,82.00
2019-02-20T10:41:50.713Z,81.00
2019-02-20T10:44:55.432Z,83.30
2019-02-20T10:47:59.890Z,83.40
2019-02-20T10:51:04.587Z,82.30
2019-02-20T10:54:09.330Z,84.20
2019-02-20T10:57:13.778Z,83.70
2019-02-20T11:00:24.290Z,83.50
2019-02-20T11:03:29.345Z,83.90
2019-02-20T11:06:34.111Z,83.80
2019-02-20T11:09:38.815Z,85.60
2019-02-20T11:12:43.545Z,86.00
2019-02-20T11:15:48.271Z,85.20
2019-02-20T11:18:53.000Z,87.90
2019-02-20T11:21:57.745Z,87.60
2019-02-20T11:25:02.470Z,88.70
2019-02-20T11:28:07.193Z,89.40
2019-02-20T11:31:11.634Z,89.90
2019-02-20T11:34:16.126Z,90.50
2019-02-20T11:37:20.795Z,90.50
2019-02-20T11:40:25.289Z,89.90
2019-02-20T11:43:29.737Z,90.40
2019-02-20T11:46:34.448Z,90.60
2019-02-20T11:49:38.891Z,90.40
2019-02-20T11:52:44.218Z,90.00
2019-02-20T11:55:48.712Z,90.00
2019-02-20T11:58:53.476Z,87.40
2019-02-20T12:01:58.206Z,87.80
2019-02-20T12:05:02.650Z,86.30
2019-02-20T12:08:07.403Z,86.00
2019-02-20T12:11:11.854Z,85.60
2019-02-20T12:14:16.295Z,83.90
2019-02-20T12:17:21.363Z,83.60
2019-02-20T12:20:25.868Z,82.60
2019-02-20T12:23:36.526Z,82.20
2019-02-20T12:26:36.471Z,82.70
2019-02-20T12:29:40.916Z,82.20
2019-02-20T12:32:45.356Z,80.30
2019-02-20T12:35:49.801Z,80.20
2019-02-20T12:38:54.260Z,81.60
2019-02-20T12:41:59.104Z,83.20
2019-02-20T12:45:03.945Z,79.80
2019-02-20T12:48:08.384Z,78.40
2019-02-20T12:51:13.184Z,78.70
2019-02-20T12:54:18.171Z,76.90
2019-02-20T12:57:22.809Z,75.70
2019-02-20T13:00:27.578Z,76.40
2019-02-20T13:03:32.017Z,76.10
2019-02-20T13:06:36.736Z,76.30
2019-02-20T13:09:41.245Z,76.00
2019-02-20T13:12:46.819Z,76.20
2019-02-20T13:15:51.410Z,74.40
2019-02-20T13:18:55.855Z,73.90
2019-02-20T13:22:00.301Z,74.70
2019-02-20T13:25:05.786Z,74.20
2019-02-20T13:28:10.221Z,75.80
2019-02-20T13:31:14.991Z,73.30
2019-02-20T13:34:19.723Z,73.10
2019-02-20T13:37:24.452Z,67.90
2019-02-20T13:40:28.911Z,67.40
2019-02-20T13:43:33.331Z,63.50
2019-02-20T13:46:37.780Z,61.00
2019-02-20T13:49:42.214Z,61.50
2019-02-20T13:52:52.468Z,62.30
2019-02-20T13:55:53.732Z,59.70
2019-02-20T13:58:58.261Z,59.10
2019-02-20T14:02:03.019Z,59.40
2019-02-20T14:05:09.396Z,62.40
2019-02-20T14:08:14.428Z,64.20
2019-02-20T14:11:18.871Z,66.30
2019-02-20T14:14:23.375Z,65.30
2019-02-20T14:17:28.292Z,67.10
2019-02-20T14:20:32.809Z,65.90
2019-02-20T14:23:37.246Z,65.30
2019-02-20T14:26:42.395Z,65.40
2019-02-20T14:29:46.841Z,67.70
2019-02-20T14:32:51.283Z,69.10
2019-02-20T14:35:56.382Z,71.50
2019-02-20T14:39:00.817Z,71.30
2019-02-20T14:42:05.531Z,71.70
2019-02-20T14:45:16.162Z,70.80
2019-02-20T14:48:20.585Z,72.00
2019-02-20T14:51:25.361Z,72.80
2019-02-20T14:54:29.798Z,74.00
2019-02-20T14:57:34.236Z,75.10
2019-02-20T15:00:38.939Z,76.10
2019-02-20T15:03:43.381Z,78.70
2019-02-20T15:06:48.089Z,79.40
2019-02-20T15:09:54.068Z,80.60
2019-02-20T15:12:58.557Z,81.60
2019-02-20T15:16:03.001Z,81.90
2019-02-20T15:19:07.442Z,83.10
2019-02-20T15:22:12.155Z,83.70
2019-02-20T15:25:16.913Z,84.50
2019-02-20T15:28:21.621Z,85.80
2019-02-20T15:31:33.456Z,86.20
2019-02-20T15:34:32.221Z,87.00
2019-02-20T15:37:36.678Z,87.90
2019-02-20T15:40:41.123Z,88.60
2019-02-20T15:43:45.562Z,88.90
2019-02-20T15:46:50.305Z,89.70
2019-02-20T15:49:54.743Z,89.70
2019-02-20T15:52:59.462Z,90.10
2019-02-20T15:56:03.913Z,90.20
2019-02-20T15:59:08.356Z,90.20
2019-02-20T16:02:13.146Z,90.30
2019-02-20T16:05:17.592Z,90.50
2019-02-20T16:08:22.037Z,90.60
2019-02-20T16:11:26.822Z,90.90
2019-02-20T16:14:31.554Z,90.90
2019-02-20T16:17:36.074Z,91.30
2019-02-20T16:20:40.812Z,92.00
2019-02-20T16:23:45.301Z,92.20
2019-02-20T16:26:50.077Z,92.70
2019-02-20T16:29:54.796Z,92.90
2019-02-20T16:33:00.755Z,92.90
2019-02-20T16:36:05.361Z,93.20
2019-02-20T16:39:09.792Z,93.40
2019-02-20T16:42:14.535Z,93.40
2019-02-20T16:45:26.787Z,93.60
2019-02-20T16:48:31.682Z,93.90
2019-02-20T16:51:36.121Z,93.90
2019-02-20T16:54:40.835Z,94.00
2019-02-20T16:57:45.644Z,94.10
2019-02-20T17:00:50.596Z,94.30
2019-02-20T17:03:55.035Z,94.60
2019-02-20T17:06:59.473Z,94.80
2019-02-20T17:10:04.476Z,95.00
2019-02-20T17:13:09.215Z,95.30
2019-02-20T17:16:13.947Z,95.50
2019-02-20T17:19:18.682Z,95.60
2019-02-20T17:22:23.512Z,95.90
2019-02-20T17:25:28.555Z,95.90
2019-02-20T17:28:33.279Z,95.90
2019-02-20T17:31:37.718Z,96.20
2019-02-20T17:34:42.154Z,96.50
2019-02-20T17:37:46.592Z,96.40
2019-02-20T17:40:51.022Z,96.60
2019-02-20T17:43:55.711Z,96.40
2019-02-20T17:47:00.174Z,96.50
2019-02-20T17:50:06.923Z,96.40
2019-02-20T17:53:11.363Z,96.20
2019-02-20T17:56:15.792Z,96.30
2019-02-20T17:59:20.228Z,96.10
2019-02-20T18:02:24.699Z,96.30
2019-02-20T18:05:29.440Z,96.20
2019-02-20T18:08:34.177Z,96.20
2019-02-20T18:11:38.905Z,96.50
2019-02-20T18:14:43.347Z,96.60
2019-02-20T18:17:47.789Z,96.60
2019-02-20T18:20:52.290Z,96.60
2019-02-20T18:23:56.999Z,97.10
2019-02-20T18:27:01.435Z,97.00
2019-02-20T18:30:14.743Z,97.50
2019-02-20T18:33:19.203Z,97.40
2019-02-20T18:36:23.920Z,97.70
2019-02-20T18:39:28.661Z,97.50
2019-02-20T18:42:33.088Z,97.60
2019-02-20T18:45:37.798Z,98.00
2019-02-20T18:48:42.238Z,98.20
2019-02-20T18:51:46.951Z,97.90
2019-02-20T18:54:51.787Z,98.00
2019-02-20T18:57:56.262Z,97.90
2019-02-20T19:01:00.702Z,98.00
2019-02-20T19:04:07.994Z,98.00
2019-02-20T19:07:12.268Z,98.30
2019-02-20T19:10:24.559Z,98.00
2019-02-20T19:14:24.584Z,98.10
2019-02-20T19:17:55.015Z,98.60
2019-02-20T19:21:22.028Z,98.90
2019-02-20T19:24:46.258Z,98.80
2019-02-20T19:28:07.395Z,99.00
2019-02-20T19:31:54.327Z,98.90
2019-02-20T19:35:21.355Z,98.80
2019-02-20T19:38:42.465Z,98.60
2019-02-20T19:42:18.878Z,98.80
2019-02-20T19:45:42.738Z,99.10
2019-02-20T19:49:06.652Z,99.20
2019-02-20T19:52:45.894Z,99.40
2019-02-20T19:55:55.265Z,99.60
2019-02-20T19:59:30.328Z,99.40
2019-02-20T20:03:09.050Z,99.70
2019-02-20T20:06:44.197Z,99.90
2019-02-20T20:10:14.410Z,99.90
2019-02-20T20:13:32.482Z,99.90
2019-02-20T20:16:51.207Z,99.90
2019-02-20T20:20:25.614Z,99.90
2019-02-20T20:24:10.980Z,99.90
2019-02-20T20:27:35.022Z,99.90
2019-02-20T20:31:02.020Z,99.90
2019-02-20T20:34:19.674Z,99.90
2019-02-20T20:37:40.555Z,99.90
2019-02-20T20:41:09.208Z,99.90
2019-02-20T20:44:30.841Z,99.90
2019-02-20T20:47:52.052Z,99.90
2019-02-20T20:51:07.015Z,99.90
2019-02-20T20:54:52.161Z,99.90
2019-02-20T20:58:49.699Z,99.90
2019-02-20T21:02:07.449Z,99.90
2019-02-20T21:05:42.261Z,99.90
2019-02-20T21:08:54.348Z,99.90
2019-02-20T21:12:10.360Z,99.90
2019-02-20T21:16:05.545Z,99.90
2019-02-20T21:19:54.057Z,99.90
2019-02-20T21:23:19.851Z,99.90
2019-02-20T21:26:53.332Z,99.90
2019-02-20T21:30:17.643Z,99.90
2019-02-20T21:33:52.299Z,99.90
2019-02-20T21:37:19.523Z,99.90
2019-02-20T21:41:00.460Z,99.90
2019-02-20T21:44:39.087Z,99.90
2019-02-20T21:47:59.534Z,99.30
2019-02-20T21:51:34.085Z,99.10
2019-02-20T21:54:51.882Z,99.10
2019-02-20T21:58:17.475Z,99.10
2019-02-20T22:01:38.518Z,99.20
2019-02-20T22:04:59.628Z,99.20
2019-02-20T22:08:32.338Z,99.40
2019-02-20T22:11:47.496Z,99.50
2019-02-20T22:15:15.575Z,99.60
2019-02-20T22:18:48.451Z,99.50
2019-02-20T22:22:18.298Z,99.70
2019-02-20T22:25:30.187Z,99.60
2019-02-20T22:29:03.966Z,99.70
2019-02-20T22:32:40.786Z,99.50
2019-02-20T22:36:13.734Z,99.90
2019-02-20T22:39:49.977Z,99.90
2019-02-20T22:43:17.756Z,99.60
2019-02-20T22:46:39.330Z,99.50
2019-02-20T22:49:56.458Z,99.20
2019-02-20T22:53:05.494Z,99.60
2019-02-20T22:56:45.027Z,99.70
2019-02-20T23:00:21.810Z,99.90
2019-02-20T23:03:54.941Z,99.90
2019-02-20T23:07:13.361Z,99.80
2019-02-20T23:10:42.757Z,99.90
2019-02-20T23:14:04.107Z,99.90
2019-02-20T23:17:08.918Z,99.90
2019-02-20T23:20:13.434Z,99.90
2019-02-20T23:23:17.878Z,99.90
2019-02-20T23:26:22.318Z,99.90
2019-02-20T23:29:26.763Z,99.90
2019-02-20T23:32:31.191Z,99.90
2019-02-20T23:35:35.647Z,99.90
2019-02-20T23:38:40.397Z,99.90
2019-02-20T23:41:44.833Z,99.90
2019-02-20T23:44:49.270Z,99.90
2019-02-20T23:47:53.700Z,99.90
2019-02-20T23:50:58.398Z,99.90
2019-02-20T23:54:02.842Z,99.90
2019-02-20T23:57:07.655Z,99.90
